createdAt,value
2022-10-11T00:00:08.880Z,100055.79
2022-10-11T00:00:18.955Z,100055.73
2022-10-11T00:00:28.941Z,100053.86
2022-10-11T00:00:38.914Z,100053.06
2022-10-11T00:00:49.022Z,100057.67
2022-10-11T00:00:59.013Z,100059.70
2022-10-11T00:01:08.979Z,100052.22
2022-10-11T00:01:18.997Z,100054.29
2022-10-11T00:01:28.959Z,100055.99
2022-10-11T00:01:39.007Z,100055.27
2022-10-11T00:01:48.952Z,100057.48
2022-10-11T00:01:58.863Z,100055.77
2022-10-11T00:02:08.825Z,100053.20
2022-10-11T00:02:18.825Z,100053.05
2022-10-11T00:02:28.866Z,100057.91
2022-10-11T00:02:38.838Z,100062.72
2022-10-11T00:02:48.830Z,100059.01
2022-10-11T00:02:58.872Z,100059.00
2022-10-11T00:03:08.947Z,100055.52
2022-10-11T00:03:18.939Z,100061.89
2022-10-11T00:03:28.951Z,100057.34
2022-10-11T00:03:38.846Z,100056.84
2022-10-11T00:03:48.894Z,100058.89
2022-10-11T00:03:58.908Z,100060.95
2022-10-11T00:04:08.905Z,100056.52
2022-10-11T00:04:18.823Z,100055.81
2022-10-11T00:04:28.843Z,100057.67
2022-10-11T00:04:38.877Z,100058.34
2022-10-11T00:04:48.877Z,100062.38
2022-10-11T00:04:58.910Z,100055.48
2022-10-11T00:05:08.850Z,100056.56
2022-10-11T00:05:18.942Z,100053.85
2022-10-11T00:05:28.845Z,100059.48
2022-10-11T00:05:38.842Z,100060.05
2022-10-11T00:05:48.947Z,100056.47
2022-10-11T00:05:58.853Z,100056.90
2022-10-11T00:06:09.245Z,100059.62
2022-10-11T00:06:18.939Z,100067.74
2022-10-11T00:06:28.888Z,100065.24
2022-10-11T00:06:38.891Z,100066.09
2022-10-11T00:06:48.909Z,100060.94
2022-10-11T00:06:58.924Z,100062.29
2022-10-11T00:07:08.878Z,100067.67
2022-10-11T00:07:18.936Z,100062.91
2022-10-11T00:07:28.955Z,100064.77
2022-10-11T00:07:38.936Z,100065.66
2022-10-11T00:07:48.882Z,100064.26
2022-10-11T00:07:58.867Z,100064.50
2022-10-11T00:08:08.848Z,100063.92
2022-10-11T00:08:18.953Z,100063.42
2022-10-11T00:08:28.892Z,100064.48
2022-10-11T00:08:38.899Z,100065.42
2022-10-11T00:08:48.836Z,100068.03
2022-10-11T00:08:58.860Z,100065.91
2022-10-11T00:09:08.908Z,100067.86
2022-10-11T00:09:18.835Z,100066.70
2022-10-11T00:09:28.906Z,100064.48
2022-10-11T00:09:38.907Z,100064.74
2022-10-11T00:09:48.855Z,100064.80
2022-10-11T00:09:58.955Z,100067.95
2022-10-11T00:10:08.913Z,100069.11
2022-10-11T00:10:18.893Z,100067.52
2022-10-11T00:10:28.894Z,100067.05
2022-10-11T00:10:38.910Z,100067.36
2022-10-11T00:10:48.825Z,100066.30
2022-10-11T00:10:58.939Z,100063.54
2022-10-11T00:11:08.841Z,100066.36
2022-10-11T00:11:18.959Z,100067.85
2022-10-11T00:11:28.880Z,100068.27
2022-10-11T00:11:38.854Z,100062.25
2022-10-11T00:11:48.877Z,100066.02
2022-10-11T00:11:58.876Z,100065.56
2022-10-11T00:12:08.898Z,100067.38
2022-10-11T00:12:18.879Z,100065.73
2022-10-11T00:12:28.819Z,100067.36
2022-10-11T00:12:38.863Z,100067.22
2022-10-11T00:12:48.908Z,100064.20
2022-10-11T00:12:58.954Z,100065.23
2022-10-11T00:13:08.956Z,100065.39
2022-10-11T00:13:18.889Z,100067.38
2022-10-11T00:13:28.852Z,100063.30
2022-10-11T00:13:38.835Z,100065.72
2022-10-11T00:13:48.938Z,100063.47
2022-10-11T00:13:58.877Z,100069.44
2022-10-11T00:14:08.870Z,100063.95
2022-10-11T00:14:18.948Z,100067.20
2022-10-11T00:14:28.832Z,100068.37
2022-10-11T00:14:38.900Z,100067.83
2022-10-11T00:14:48.946Z,100065.17
2022-10-11T00:14:58.851Z,100066.44
2022-10-11T00:15:08.911Z,100067.04
2022-10-11T00:15:18.837Z,100067.19
2022-10-11T00:15:28.903Z,100069.81
2022-10-11T00:15:38.820Z,100066.61
2022-10-11T00:15:48.904Z,100069.48
2022-10-11T00:15:58.833Z,100065.60
2022-10-11T00:16:09.127Z,100065.44
2022-10-11T00:16:18.895Z,100069.97
2022-10-11T00:16:28.824Z,100071.40
2022-10-11T00:16:38.945Z,100073.16
2022-10-11T00:16:48.942Z,100072.95
2022-10-11T00:16:58.931Z,100071.30
2022-10-11T00:17:08.929Z,100067.18
2022-10-11T00:17:18.898Z,100067.68
2022-10-11T00:17:28.901Z,100064.66
2022-10-11T00:17:38.916Z,100069.23
2022-10-11T00:17:48.903Z,100067.47
2022-10-11T00:18:03.286Z,100068.30
2022-10-11T00:18:08.885Z,100066.07
2022-10-11T00:18:18.937Z,100067.45
2022-10-11T00:18:28.836Z,100063.81
2022-10-11T00:18:38.903Z,100068.78
2022-10-11T00:18:48.829Z,100067.56
2022-10-11T00:18:58.872Z,100069.66
2022-10-11T00:19:08.910Z,100066.55
2022-10-11T00:19:18.911Z,100063.32
2022-10-11T00:19:28.873Z,100065.00
2022-10-11T00:19:38.846Z,100066.63
2022-10-11T00:19:48.871Z,100066.73
2022-10-11T00:19:58.945Z,100069.64
2022-10-11T00:20:08.936Z,100068.38
2022-10-11T00:20:18.916Z,100066.23
2022-10-11T00:20:28.939Z,100065.82
2022-10-11T00:20:38.904Z,100068.20
2022-10-11T00:20:48.900Z,100068.27
2022-10-11T00:20:58.872Z,100067.93
2022-10-11T00:21:08.913Z,100069.03
2022-10-11T00:21:18.870Z,100067.86
2022-10-11T00:21:28.838Z,100068.69
2022-10-11T00:21:38.867Z,100066.59
2022-10-11T00:21:48.898Z,100068.45
2022-10-11T00:21:58.914Z,100071.23
2022-10-11T00:22:08.857Z,100070.02
2022-10-11T00:22:18.904Z,100070.84
2022-10-11T00:22:28.875Z,100071.16
2022-10-11T00:22:38.949Z,100071.43
2022-10-11T00:22:48.874Z,100071.03
2022-10-11T00:22:58.928Z,100068.34
2022-10-11T00:23:08.855Z,100071.16
2022-10-11T00:23:18.941Z,100068.54
2022-10-11T00:23:28.951Z,100069.20
2022-10-11T00:23:38.944Z,100069.43
2022-10-11T00:23:48.913Z,100065.52
2022-10-11T00:23:58.830Z,100068.00
2022-10-11T00:24:08.902Z,100071.18
2022-10-11T00:24:18.838Z,100064.70
2022-10-11T00:24:28.893Z,100072.73
2022-10-11T00:24:38.922Z,100069.48
2022-10-11T00:24:48.890Z,100070.97
2022-10-11T00:24:58.823Z,100068.25
2022-10-11T00:25:08.941Z,100072.30
2022-10-11T00:25:18.889Z,100074.70
2022-10-11T00:25:28.921Z,100077.30
2022-10-11T00:25:38.882Z,100073.11
2022-10-11T00:25:48.867Z,100076.03
2022-10-11T00:25:58.952Z,100074.36
2022-10-11T00:26:09.378Z,100080.39
2022-10-11T00:26:18.823Z,100077.10
2022-10-11T00:26:28.855Z,100076.77
2022-10-11T00:26:41.165Z,100079.38
2022-10-11T00:26:48.878Z,100076.73
2022-10-11T00:26:58.878Z,100075.33
2022-10-11T00:27:08.879Z,100077.22
2022-10-11T00:27:18.877Z,100081.62
2022-10-11T00:27:28.824Z,100077.55
2022-10-11T00:27:38.865Z,100076.31
2022-10-11T00:27:48.845Z,100077.06
2022-10-11T00:27:58.845Z,100074.22
2022-10-11T00:28:08.871Z,100079.06
2022-10-11T00:28:18.928Z,100074.55
2022-10-11T00:28:29.052Z,100077.56
2022-10-11T00:28:39.026Z,100076.80
2022-10-11T00:28:48.932Z,100079.61
2022-10-11T00:28:58.932Z,100081.38
2022-10-11T00:29:08.861Z,100081.83
2022-10-11T00:29:18.841Z,100078.88
2022-10-11T00:29:28.930Z,100078.89
2022-10-11T00:29:38.922Z,100074.90
2022-10-11T00:29:48.907Z,100081.20
2022-10-11T00:29:58.913Z,100085.34
2022-10-11T00:30:08.952Z,100084.08
2022-10-11T00:30:18.828Z,100078.70
2022-10-11T00:30:28.904Z,100082.19
2022-10-11T00:30:38.900Z,100081.02
2022-10-11T00:30:48.905Z,100079.33
2022-10-11T00:30:58.847Z,100078.44
2022-10-11T00:31:09.013Z,100083.47
2022-10-11T00:31:18.904Z,100079.16
2022-10-11T00:31:33.256Z,100081.51
2022-10-11T00:31:38.827Z,100080.35
2022-10-11T00:31:48.939Z,100077.93
2022-10-11T00:31:58.883Z,100084.55
2022-10-11T00:32:08.849Z,100075.48
2022-10-11T00:32:18.824Z,100080.34
2022-10-11T00:32:28.893Z,100082.28
2022-10-11T00:32:38.905Z,100078.73
2022-10-11T00:32:48.908Z,100074.81
2022-10-11T00:32:58.941Z,100081.22
2022-10-11T00:33:08.831Z,100075.97
2022-10-11T00:33:18.832Z,100080.46
2022-10-11T00:33:28.855Z,100082.70
2022-10-11T00:33:38.956Z,100080.31
2022-10-11T00:33:48.881Z,100084.09
2022-10-11T00:33:58.903Z,100080.04
2022-10-11T00:34:08.868Z,100080.20
2022-10-11T00:34:18.946Z,100082.69
2022-10-11T00:34:28.901Z,100081.26
2022-10-11T00:34:38.954Z,100083.25
2022-10-11T00:34:48.903Z,100079.75
2022-10-11T00:34:58.920Z,100083.23
2022-10-11T00:35:08.850Z,100082.11
2022-10-11T00:35:18.896Z,100083.98
2022-10-11T00:35:28.908Z,100085.88
2022-10-11T00:35:38.930Z,100081.34
2022-10-11T00:35:48.842Z,100084.88
2022-10-11T00:35:58.917Z,100080.93
2022-10-11T00:36:09.371Z,100082.15
2022-10-11T00:36:18.880Z,100082.91
2022-10-11T00:36:28.950Z,100084.56
2022-10-11T00:36:38.947Z,100082.08
2022-10-11T00:36:48.915Z,100086.52
2022-10-11T00:36:58.848Z,100081.30
2022-10-11T00:37:08.940Z,100085.52
2022-10-11T00:37:18.864Z,100086.50
2022-10-11T00:37:28.857Z,100082.56
2022-10-11T00:37:38.904Z,100081.79
2022-10-11T00:37:48.866Z,100083.94
2022-10-11T00:37:58.910Z,100082.53
2022-10-11T00:38:08.885Z,100086.20
2022-10-11T00:38:18.902Z,100081.12
2022-10-11T00:38:31.594Z,100086.53
2022-10-11T00:38:38.869Z,100081.52
2022-10-11T00:38:48.949Z,100087.20
2022-10-11T00:38:58.912Z,100086.09
2022-10-11T00:39:08.841Z,100082.86
2022-10-11T00:39:18.935Z,100085.27
2022-10-11T00:39:28.907Z,100086.53
2022-10-11T00:39:38.895Z,100086.01
2022-10-11T00:39:48.938Z,100087.69
2022-10-11T00:39:58.845Z,100082.62
2022-10-11T00:40:08.853Z,100084.20
2022-10-11T00:40:18.848Z,100089.97
2022-10-11T00:40:28.827Z,100084.92
2022-10-11T00:40:38.907Z,100089.83
2022-10-11T00:40:48.912Z,100089.00
2022-10-11T00:40:58.880Z,100091.32
2022-10-11T00:41:08.878Z,100084.19
2022-10-11T00:41:18.902Z,100084.75
2022-10-11T00:41:28.918Z,100085.47
2022-10-11T00:41:38.852Z,100089.77
2022-10-11T00:41:48.940Z,100085.91
2022-10-11T00:41:58.910Z,100087.12
2022-10-11T00:42:08.887Z,100084.83
2022-10-11T00:42:18.944Z,100088.64
2022-10-11T00:42:28.895Z,100089.88
2022-10-11T00:42:38.878Z,100087.33
2022-10-11T00:42:48.886Z,100088.00
2022-10-11T00:42:58.854Z,100085.91
2022-10-11T00:43:08.844Z,100088.97
2022-10-11T00:43:18.825Z,100091.36
2022-10-11T00:43:28.900Z,100087.98
2022-10-11T00:43:38.892Z,100090.87
2022-10-11T00:43:48.951Z,100088.12
2022-10-11T00:43:58.821Z,100091.19
2022-10-11T00:44:08.826Z,100091.84
2022-10-11T00:44:18.952Z,100088.27
2022-10-11T00:44:28.833Z,100092.08
2022-10-11T00:44:38.878Z,100090.75
2022-10-11T00:44:48.928Z,100090.34
2022-10-11T00:44:58.895Z,100090.34
2022-10-11T00:45:08.926Z,100091.23
2022-10-11T00:45:18.846Z,100096.80
2022-10-11T00:45:28.889Z,100095.40
2022-10-11T00:45:38.874Z,100092.83
2022-10-11T00:45:48.879Z,100092.50
2022-10-11T00:45:58.824Z,100088.95
2022-10-11T00:46:09.342Z,100092.89
2022-10-11T00:46:18.914Z,100093.88
2022-10-11T00:46:28.896Z,100093.25
2022-10-11T00:46:38.826Z,100098.61
2022-10-11T00:46:49.850Z,100095.72
2022-10-11T00:46:58.884Z,100090.65
2022-10-11T00:47:08.879Z,100092.69
2022-10-11T00:47:18.874Z,100099.83
2022-10-11T00:47:28.825Z,100097.60
2022-10-11T00:47:38.952Z,100093.55
2022-10-11T00:47:48.934Z,100098.59
2022-10-11T00:47:58.828Z,100096.53
2022-10-11T00:48:08.863Z,100096.53
2022-10-11T00:48:18.926Z,100093.52
2022-10-11T00:48:28.832Z,100099.67
2022-10-11T00:48:38.866Z,100100.12
2022-10-11T00:48:48.880Z,100096.59
2022-10-11T00:48:58.842Z,100097.64
2022-10-11T00:49:08.908Z,100096.98
2022-10-11T00:49:18.837Z,100096.58
2022-10-11T00:49:28.955Z,100093.33
2022-10-11T00:49:38.841Z,100097.31
2022-10-11T00:49:48.934Z,100098.45
2022-10-11T00:49:58.896Z,100097.62
2022-10-11T00:50:08.961Z,100098.56
2022-10-11T00:50:18.940Z,100097.80
2022-10-11T00:50:28.902Z,100099.12
2022-10-11T00:50:38.833Z,100098.34
2022-10-11T00:50:48.838Z,100100.28
2022-10-11T00:50:58.931Z,100102.38
2022-10-11T00:51:09.203Z,100096.56
2022-10-11T00:51:18.841Z,100100.30
2022-10-11T00:51:28.916Z,100097.72
2022-10-11T00:51:38.895Z,100098.88
2022-10-11T00:51:48.839Z,100099.27
2022-10-11T00:51:58.846Z,100101.14
2022-10-11T00:52:08.881Z,100101.26
2022-10-11T00:52:18.950Z,100099.54
2022-10-11T00:52:28.884Z,100101.80
2022-10-11T00:52:38.920Z,100097.95
2022-10-11T00:52:48.851Z,100096.65
2022-10-11T00:52:58.854Z,100104.02
2022-10-11T00:53:08.827Z,100101.92
2022-10-11T00:53:18.864Z,100101.47
2022-10-11T00:53:28.848Z,100102.08
2022-10-11T00:53:38.885Z,100096.62
2022-10-11T00:53:48.855Z,100101.30
2022-10-11T00:53:58.825Z,100100.80
2022-10-11T00:54:08.847Z,100104.25
2022-10-11T00:54:18.902Z,100102.30
2022-10-11T00:54:28.880Z,100101.97
2022-10-11T00:54:38.894Z,100102.08
2022-10-11T00:54:48.840Z,100105.00
2022-10-11T00:54:58.883Z,100105.84
2022-10-11T00:55:08.868Z,100104.19
2022-10-11T00:55:18.866Z,100100.64
2022-10-11T00:55:28.938Z,100103.26
2022-10-11T00:55:38.865Z,100105.02
2022-10-11T00:55:48.828Z,100104.45
2022-10-11T00:55:58.835Z,100103.29
2022-10-11T00:56:09.417Z,100105.78
2022-10-11T00:56:18.847Z,100106.02
2022-10-11T00:56:28.826Z,100108.84
2022-10-11T00:56:38.933Z,100108.84
2022-10-11T00:56:48.878Z,100107.02
2022-10-11T00:56:58.881Z,100109.41
2022-10-11T00:57:08.943Z,100107.91
2022-10-11T00:57:18.929Z,100111.16
2022-10-11T00:57:28.949Z,100109.17
2022-10-11T00:57:38.825Z,100106.80
2022-10-11T00:57:48.924Z,100108.61
2022-10-11T00:57:58.908Z,100108.28
2022-10-11T00:58:08.847Z,100107.79
2022-10-11T00:58:18.919Z,100110.27
2022-10-11T00:58:28.820Z,100105.09
2022-10-11T00:58:38.893Z,100107.62
2022-10-11T00:58:48.829Z,100106.38
2022-10-11T00:58:58.883Z,100107.09
2022-10-11T00:59:08.853Z,100108.78
2022-10-11T00:59:18.882Z,100108.95
2022-10-11T00:59:28.938Z,100111.59
2022-10-11T00:59:38.842Z,100110.99
2022-10-11T00:59:48.908Z,100111.72
2022-10-11T00:59:58.966Z,100109.38
2022-10-11T01:00:08.842Z,100107.77
2022-10-11T01:00:18.827Z,100109.66
2022-10-11T01:00:28.826Z,100109.88
2022-10-11T01:00:38.946Z,100112.03
2022-10-11T01:00:48.879Z,100107.56
2022-10-11T01:00:58.965Z,100110.81
2022-10-11T01:01:09.036Z,100108.75
2022-10-11T01:01:19.020Z,100106.44
2022-10-11T01:01:28.991Z,100107.76
2022-10-11T01:01:38.978Z,100113.34
2022-10-11T01:01:48.947Z,100110.53
2022-10-11T01:01:58.936Z,100103.44
2022-10-11T01:02:08.943Z,100111.69
2022-10-11T01:02:18.935Z,100110.53
2022-10-11T01:02:28.895Z,100112.05
2022-10-11T01:02:38.847Z,100109.70
2022-10-11T01:02:48.946Z,100108.20
2022-10-11T01:02:58.836Z,100111.36
2022-10-11T01:03:08.830Z,100110.86
2022-10-11T01:03:18.906Z,100108.38
2022-10-11T01:03:28.880Z,100111.30
2022-10-11T01:03:38.853Z,100108.05
2022-10-11T01:03:48.948Z,100111.69
2022-10-11T01:03:58.849Z,100106.91
2022-10-11T01:04:08.954Z,100110.03
2022-10-11T01:04:18.895Z,100109.31
2022-10-11T01:04:28.925Z,100111.85
2022-10-11T01:04:38.918Z,100110.03
2022-10-11T01:04:57.305Z,100110.20
2022-10-11T01:05:25.079Z,100113.34
2022-10-11T01:05:28.221Z,100105.72
2022-10-11T01:05:29.133Z,100107.74
2022-10-11T01:05:30.111Z,100111.52
2022-10-11T01:05:38.954Z,100111.80
2022-10-11T01:05:48.892Z,100108.05
2022-10-11T01:05:58.893Z,100109.53
2022-10-11T01:06:09.108Z,100109.89
2022-10-11T01:06:18.906Z,100108.98
2022-10-11T01:06:28.928Z,100109.04
2022-10-11T01:06:38.883Z,100109.41
2022-10-11T01:06:48.875Z,100110.20
2022-10-11T01:06:58.889Z,100109.70
2022-10-11T01:07:08.901Z,100108.81
2022-10-11T01:07:18.841Z,100106.72
2022-10-11T01:07:28.897Z,100109.56
2022-10-11T01:07:38.946Z,100108.48
2022-10-11T01:07:48.864Z,100109.06
2022-10-11T01:07:58.919Z,100110.53
2022-10-11T01:08:08.955Z,100107.64
2022-10-11T01:08:18.884Z,100109.06
2022-10-11T01:08:28.929Z,100106.73
2022-10-11T01:08:38.852Z,100109.45
2022-10-11T01:08:48.887Z,100108.72
2022-10-11T01:08:58.900Z,100109.69
2022-10-11T01:09:08.952Z,100106.70
2022-10-11T01:09:18.895Z,100107.74
2022-10-11T01:09:28.826Z,100111.03
2022-10-11T01:09:38.833Z,100103.06
2022-10-11T01:09:48.886Z,100109.30
2022-10-11T01:09:58.895Z,100107.22
2022-10-11T01:10:08.882Z,100103.75
2022-10-11T01:10:18.860Z,100106.31
2022-10-11T01:10:28.895Z,100104.98
2022-10-11T01:10:38.819Z,100104.98
2022-10-11T01:10:48.899Z,100106.38
2022-10-11T01:10:58.865Z,100108.14
2022-10-11T01:11:08.830Z,100104.98
2022-10-11T01:11:18.897Z,100107.86
2022-10-11T01:11:28.856Z,100104.97
2022-10-11T01:11:38.920Z,100106.56
2022-10-11T01:11:48.920Z,100108.39
2022-10-11T01:11:58.867Z,100104.80
2022-10-11T01:12:08.869Z,100110.72
2022-10-11T01:12:18.951Z,100108.22
2022-10-11T01:12:28.880Z,100107.80
2022-10-11T01:12:38.838Z,100106.62
2022-10-11T01:12:48.938Z,100105.20
2022-10-11T01:12:58.878Z,100106.90
2022-10-11T01:13:08.903Z,100107.73
2022-10-11T01:13:18.850Z,100106.07
2022-10-11T01:13:28.915Z,100105.05
2022-10-11T01:13:38.885Z,100108.89
2022-10-11T01:13:48.931Z,100109.38
2022-10-11T01:13:58.909Z,100104.08
2022-10-11T01:14:08.886Z,100105.08
2022-10-11T01:14:18.952Z,100109.02
2022-10-11T01:14:28.847Z,100106.52
2022-10-11T01:14:38.915Z,100111.70
2022-10-11T01:14:48.956Z,100105.91
2022-10-11T01:14:58.881Z,100106.95
2022-10-11T01:15:08.854Z,100107.52
2022-10-11T01:15:18.890Z,100106.23
2022-10-11T01:15:28.859Z,100106.62
2022-10-11T01:15:38.879Z,100109.22
2022-10-11T01:15:48.838Z,100104.41
2022-10-11T01:15:58.872Z,100111.17
2022-10-11T01:16:09.000Z,100107.95
2022-10-11T01:16:18.873Z,100106.73
2022-10-11T01:16:28.885Z,100112.03
2022-10-11T01:16:38.849Z,100110.05
2022-10-11T01:16:48.938Z,100111.66
2022-10-11T01:16:58.908Z,100108.02
2022-10-11T01:17:08.937Z,100109.28
2022-10-11T01:17:18.892Z,100109.70
2022-10-11T01:17:28.868Z,100110.21
2022-10-11T01:17:38.849Z,100108.87
2022-10-11T01:17:48.907Z,100109.70
2022-10-11T01:17:58.912Z,100112.25
2022-10-11T01:18:08.885Z,100106.28
2022-10-11T01:18:18.907Z,100109.42
2022-10-11T01:18:28.882Z,100110.25
2022-10-11T01:18:38.887Z,100112.08
2022-10-11T01:18:48.829Z,100110.16
2022-10-11T01:18:58.935Z,100111.47
2022-10-11T01:19:08.934Z,100107.50
2022-10-11T01:19:18.904Z,100105.38
2022-10-11T01:19:28.895Z,100108.69
2022-10-11T01:19:38.825Z,100112.30
2022-10-11T01:19:48.886Z,100110.75
2022-10-11T01:19:58.868Z,100111.83
2022-10-11T01:20:08.832Z,100112.00
2022-10-11T01:20:18.889Z,100109.83
2022-10-11T01:20:28.898Z,100110.84
2022-10-11T01:20:38.918Z,100108.67
2022-10-11T01:20:48.868Z,100108.31
2022-10-11T01:20:58.910Z,100110.67
2022-10-11T01:21:08.928Z,100109.67
2022-10-11T01:21:18.835Z,100109.00
2022-10-11T01:21:28.888Z,100113.12
2022-10-11T01:21:38.932Z,100111.79
2022-10-11T01:21:48.936Z,100113.14
2022-10-11T01:21:58.854Z,100110.47
2022-10-11T01:22:08.937Z,100110.06
2022-10-11T01:22:18.889Z,100110.22
2022-10-11T01:22:28.887Z,100112.88
2022-10-11T01:22:38.891Z,100108.73
2022-10-11T01:22:48.931Z,100112.27
2022-10-11T01:22:58.854Z,100111.55
2022-10-11T01:23:08.884Z,100111.94
2022-10-11T01:23:18.942Z,100113.80
2022-10-11T01:23:28.903Z,100114.11
2022-10-11T01:23:38.904Z,100116.14
2022-10-11T01:23:48.907Z,100115.45
2022-10-11T01:23:58.895Z,100111.67
2022-10-11T01:24:09.043Z,100112.56
2022-10-11T01:24:18.862Z,100110.34
2022-10-11T01:24:28.922Z,100112.91
2022-10-11T01:24:38.825Z,100110.92
2022-10-11T01:24:48.908Z,100113.12
2022-10-11T01:24:58.826Z,100112.97
2022-10-11T01:25:08.859Z,100112.91
2022-10-11T01:25:18.868Z,100114.80
2022-10-11T01:25:28.943Z,100113.07
2022-10-11T01:25:38.945Z,100112.23
2022-10-11T01:25:48.866Z,100115.16
2022-10-11T01:25:58.948Z,100117.04
2022-10-11T01:26:08.868Z,100116.62
2022-10-11T01:26:18.933Z,100110.83
2022-10-11T01:26:28.881Z,100118.03
2022-10-11T01:26:38.853Z,100117.28
2022-10-11T01:26:48.904Z,100113.23
2022-10-11T01:26:58.870Z,100114.97
2022-10-11T01:27:08.902Z,100113.69
2022-10-11T01:27:18.905Z,100112.92
2022-10-11T01:27:28.956Z,100116.80
2022-10-11T01:27:38.871Z,100116.66
2022-10-11T01:27:48.902Z,100112.75
2022-10-11T01:27:58.885Z,100116.50
2022-10-11T01:28:08.999Z,100116.64
2022-10-11T01:28:18.984Z,100114.02
2022-10-11T01:28:29.007Z,100118.06
2022-10-11T01:28:39.028Z,100116.47
2022-10-11T01:28:48.934Z,100116.80
2022-10-11T01:28:58.828Z,100119.66
2022-10-11T01:29:08.900Z,100119.23
2022-10-11T01:29:18.920Z,100115.25
2022-10-11T01:29:28.847Z,100116.19
2022-10-11T01:29:38.829Z,100116.41
2022-10-11T01:29:48.955Z,100115.69
2022-10-11T01:29:58.857Z,100116.02
2022-10-11T01:30:08.827Z,100117.17
2022-10-11T01:30:18.823Z,100119.47
2022-10-11T01:30:28.836Z,100118.91
2022-10-11T01:30:38.837Z,100120.30
2022-10-11T01:30:48.946Z,100116.92
2022-10-11T01:30:58.902Z,100119.41
2022-10-11T01:31:08.921Z,100114.53
2022-10-11T01:31:18.839Z,100118.97
2022-10-11T01:31:28.886Z,100119.14
2022-10-11T01:31:38.832Z,100119.34
2022-10-11T01:31:48.940Z,100120.33
2022-10-11T01:31:58.857Z,100119.28
2022-10-11T01:32:08.865Z,100120.79
2022-10-11T01:32:18.948Z,100121.63
2022-10-11T01:32:28.914Z,100116.73
2022-10-11T01:32:38.890Z,100118.44
2022-10-11T01:32:48.870Z,100120.38
2022-10-11T01:32:58.908Z,100121.80
2022-10-11T01:33:08.903Z,100122.36
2022-10-11T01:33:18.925Z,100119.38
2022-10-11T01:33:28.941Z,100122.52
2022-10-11T01:33:38.927Z,100121.20
2022-10-11T01:33:48.917Z,100120.09
2022-10-11T01:33:58.864Z,100120.42
2022-10-11T01:34:08.857Z,100120.45
2022-10-11T01:34:18.888Z,100122.11
2022-10-11T01:34:28.895Z,100123.68
2022-10-11T01:34:38.867Z,100122.58
2022-10-11T01:34:48.878Z,100120.95
2022-10-11T01:34:58.841Z,100122.91
2022-10-11T01:35:08.912Z,100123.74
2022-10-11T01:35:18.854Z,100123.77
2022-10-11T01:35:28.928Z,100122.67
2022-10-11T01:35:38.948Z,100127.80
2022-10-11T01:35:48.899Z,100124.82
2022-10-11T01:35:58.823Z,100122.83
2022-10-11T01:36:09.071Z,100124.66
2022-10-11T01:36:18.854Z,100127.30
2022-10-11T01:36:28.942Z,100126.19
2022-10-11T01:36:38.956Z,100125.73
2022-10-11T01:36:48.924Z,100124.75
2022-10-11T01:36:58.821Z,100123.75
2022-10-11T01:37:08.947Z,100126.52
2022-10-11T01:37:18.833Z,100131.70
2022-10-11T01:37:28.945Z,100127.68
2022-10-11T01:37:38.906Z,100130.02
2022-10-11T01:37:48.925Z,100131.48
2022-10-11T01:37:58.846Z,100125.95
2022-10-11T01:38:08.864Z,100125.61
2022-10-11T01:38:18.842Z,100130.49
2022-10-11T01:38:28.913Z,100129.03
2022-10-11T01:38:38.918Z,100126.67
2022-10-11T01:38:48.944Z,100133.19
2022-10-11T01:38:58.855Z,100126.45
2022-10-11T01:39:08.933Z,100129.59
2022-10-11T01:39:18.890Z,100129.17
2022-10-11T01:39:28.827Z,100130.58
2022-10-11T01:39:38.939Z,100129.34
2022-10-11T01:39:48.877Z,100130.09
2022-10-11T01:39:58.878Z,100126.70
2022-10-11T01:40:08.943Z,100127.99
2022-10-11T01:40:18.959Z,100129.75
2022-10-11T01:40:28.854Z,100132.18
2022-10-11T01:40:38.899Z,100133.62
2022-10-11T01:40:48.891Z,100132.51
2022-10-11T01:40:58.844Z,100133.06
2022-10-11T01:41:08.843Z,100132.41
2022-10-11T01:41:18.947Z,100132.23
2022-10-11T01:41:28.945Z,100129.98
2022-10-11T01:41:38.877Z,100132.73
2022-10-11T01:41:48.826Z,100131.00
2022-10-11T01:41:58.946Z,100134.48
2022-10-11T01:42:08.947Z,100133.05
2022-10-11T01:42:18.928Z,100134.04
2022-10-11T01:42:28.908Z,100135.92
2022-10-11T01:42:38.859Z,100136.86
2022-10-11T01:42:48.825Z,100134.77
2022-10-11T01:42:58.850Z,100135.62
2022-10-11T01:43:08.904Z,100135.09
2022-10-11T01:43:18.957Z,100133.30
2022-10-11T01:43:28.896Z,100132.64
2022-10-11T01:43:38.870Z,100137.75
2022-10-11T01:43:48.885Z,100133.61
2022-10-11T01:43:58.829Z,100130.05
2022-10-11T01:44:08.859Z,100133.27
2022-10-11T01:44:18.926Z,100135.08
2022-10-11T01:44:28.949Z,100133.70
2022-10-11T01:44:38.846Z,100134.11
2022-10-11T01:44:48.911Z,100133.28
2022-10-11T01:44:58.935Z,100135.77
2022-10-11T01:45:08.861Z,100131.59
2022-10-11T01:45:18.899Z,100134.67
2022-10-11T01:45:28.866Z,100132.45
2022-10-11T01:45:38.845Z,100136.22
2022-10-11T01:45:48.898Z,100135.09
2022-10-11T01:45:58.952Z,100127.54
2022-10-11T01:46:09.094Z,100131.34
2022-10-11T01:46:18.857Z,100128.45
2022-10-11T01:46:28.828Z,100134.98
2022-10-11T01:46:38.955Z,100133.23
2022-10-11T01:46:48.903Z,100132.92
2022-10-11T01:46:58.918Z,100131.10
2022-10-11T01:47:08.846Z,100132.05
2022-10-11T01:47:18.930Z,100129.09
2022-10-11T01:47:28.879Z,100129.40
2022-10-11T01:47:38.902Z,100132.11
2022-10-11T01:47:48.874Z,100130.38
2022-10-11T01:47:58.859Z,100134.09
2022-10-11T01:48:08.931Z,100134.98
2022-10-11T01:48:18.831Z,100131.53
2022-10-11T01:48:28.885Z,100129.52
2022-10-11T01:48:38.930Z,100132.98
2022-10-11T01:48:48.911Z,100133.58
2022-10-11T01:48:58.938Z,100128.77
2022-10-11T01:49:08.898Z,100134.22
2022-10-11T01:49:18.918Z,100131.50
2022-10-11T01:49:28.928Z,100135.11
2022-10-11T01:49:38.877Z,100134.95
2022-10-11T01:49:48.951Z,100134.39
2022-10-11T01:49:58.838Z,100130.64
2022-10-11T01:50:08.852Z,100136.30
2022-10-11T01:50:18.947Z,100135.28
2022-10-11T01:50:28.898Z,100134.48
2022-10-11T01:50:38.867Z,100133.39
2022-10-11T01:50:48.950Z,100137.20
2022-10-11T01:50:58.903Z,100132.57
2022-10-11T01:51:08.946Z,100135.14
2022-10-11T01:51:18.847Z,100133.81
2022-10-11T01:51:28.913Z,100133.48
2022-10-11T01:51:38.895Z,100132.11
2022-10-11T01:51:48.900Z,100134.31
2022-10-11T01:51:58.908Z,100135.14
2022-10-11T01:52:08.871Z,100137.02
2022-10-11T01:52:18.945Z,100132.95
2022-10-11T01:52:28.878Z,100134.59
2022-10-11T01:52:38.955Z,100135.86
2022-10-11T01:52:48.898Z,100139.01
2022-10-11T01:52:58.954Z,100135.59
2022-10-11T01:53:08.847Z,100138.84
2022-10-11T01:53:18.921Z,100136.45
2022-10-11T01:53:28.931Z,100136.73
2022-10-11T01:53:38.914Z,100136.51
2022-10-11T01:53:48.936Z,100138.33
2022-10-11T01:53:58.895Z,100135.02
2022-10-11T01:54:08.905Z,100135.52